Latest Coastal Weather Observations for Sydney Harbour

IDN60701

Issued at 5:02 pm EST Sunday 28 August 2016 (issued every 10 minutes, with the page automatically refreshed every 10 minutes)

About coastal observations | Map of coastal stations | Coastal observations for NSW | Marine services | Other Formats
Station Details ID: 066196 Name: WEDDING CAKE WEST Lat: -33.84 Lon: 151.26 Height: 6.0 m
Data from the previous 72 hours. | See also: Recent months at Sydney Harbour
Date/Time
EST
Temp
°C
Wind Pressure Rain since
9am
mm
Weather Cloud Vis
km
Sea
Height
m
Swell
Dir  Spd
kts
Gust
kts
hPa Trend Height
m
Period
s
Dir
28/05:00pm 17.2 SSE 7 10 - - - - - - - - - -
28/04:30pm 17.5 S 7 8 - - - - - - - - - -
28/04:00pm 17.5 SSE 8 11 - - - - - - - - - -
28/03:30pm 17.3 SSE 10 13 - - - - - - - - - -
28/03:00pm 17.4 SE 7 11 - - - - - - - - - -
28/02:30pm 17.2 SE 9 11 - - - - - - - - - -
28/02:00pm 17.2 SE 9 11 - - - - - - - - - -
28/01:30pm 17.3 ESE 8 12 - - - - - - - - - -
28/01:00pm 16.8 SE 10 14 - - - - - - - - - -
28/12:30pm 17.1 WSW 9 12 - - - - - - - - - -
28/12:00pm 16.0 WNW 9 13 - - - - - - - - - -
28/11:30am 15.3 W 10 14 - - - - - - - - - -
28/11:00am 14.6 W 13 16 - - - - - - - - - -
28/10:30am 14.0 WSW 13 16 - - - - - - - - - -
28/10:00am 13.6 W 16 21 - - - - - - - - - -
28/09:30am 12.8 W 16 20 - - - - - - - - - -
28/09:00am 12.4 W 13 18 - - - - - - - - - -
28/08:30am 12.5 W 14 19 - - - - - - - - - -
28/08:00am 11.7 W 10 14 - - - - - - - - - -
28/07:30am 11.0 W 13 20 - - - - - - - - - -
28/07:00am 11.2 W 11 15 - - - - - - - - - -
28/06:30am 11.2 W 10 14 - - - - - - - - - -
28/06:00am 10.8 W 10 14 - - - - - - - - - -
28/05:30am 11.5 W 15 23 - - - - - - - - - -
28/05:00am 11.2 W 16 21 - - - - - - - - - -
28/04:30am 10.9 WSW 11 14 - - - - - - - - - -
28/04:00am 10.7 WSW 9 11 - - - - - - - - - -
28/03:30am 10.9 W 7 10 - - - - - - - - - -
28/03:00am 10.6 WNW 5 6 - - - - - - - - - -
28/02:30am 11.0 W 7 9 - - - - - - - - - -
28/02:00am 11.2 W 9 11 - - - - - - - - - -
28/01:30am 11.4 WSW 11 15 - - - - - - - - - -
28/01:00am 11.5 W 12 15 - - - - - - - - - -
28/12:30am 12.3 W 11 14 - - - - - - - - - -
28/12:00am 12.4 W 9 12 - - - - - - - - - -
 
Date/Time
EST
Temp
°C
Wind Pressure Rain since
9am
mm
Weather Cloud Vis
km
Sea
Height
m
Swell
Dir  Spd
kts
Gust
kts
hPa Trend Height
m
Period
s
Dir
27/11:30pm 12.9 WSW 9 11 - - - - - - - - - -
27/11:00pm 12.7 W 9 11 - - - - - - - - - -
27/10:30pm 13.3 W 9 9 - - - - - - - - - -
27/10:00pm 13.6 NNW 8 11 - - - - - - - - - -
27/09:30pm 13.7 NNW 8 9 - - - - - - - - - -
27/09:00pm 14.3 N 10 12 - - - - - - - - - -
27/08:30pm 14.4 NNW 7 9 - - - - - - - - - -
27/08:00pm 14.9 N 9 12 - - - - - - - - - -
27/07:30pm 15.3 N 9 12 - - - - - - - - - -
27/07:00pm 16.1 N 13 16 - - - - - - - - - -
27/06:30pm 16.1 N 13 16 - - - - - - - - - -
27/06:00pm 16.1 N 11 13 - - - - - - - - - -
27/05:30pm 16.2 N 11 13 - - - - - - - - - -
27/05:00pm 16.3 NNE 13 14 - - - - - - - - - -
27/04:30pm 16.6 NNE 11 14 - - - - - - - - - -
27/04:00pm 16.7 ENE 10 12 - - - - - - - - - -
27/03:30pm 16.6 ENE 9 11 - - - - - - - - - -
27/03:00pm 16.5 ENE 8 10 - - - - - - - - - -
27/02:30pm 16.1 ENE 9 11 - - - - - - - - - -
27/02:00pm 16.1 ENE 10 11 - - - - - - - - - -
27/01:30pm 17.2 SW 4 5 - - - - - - - - - -
27/01:00pm 15.9 SW 4 5 - - - - - - - - - -
27/12:30pm 15.6 SW 6 7 - - - - - - - - - -
27/12:00pm 15.0 SW 8 9 - - - - - - - - - -
27/11:30am 14.5 WSW 8 10 - - - - - - - - - -
27/11:00am 13.9 WSW 11 14 - - - - - - - - - -
27/10:30am 13.3 W 11 15 - - - - - - - - - -
27/10:00am 13.0 W 11 15 - - - - - - - - - -
27/09:30am 11.9 WSW 14 20 - - - - - - - - - -
27/09:00am 11.1 WSW 14 18 - - - - - - - - - -
27/08:30am 10.4 WSW 13 17 - - - - - - - - - -
27/08:00am 9.9 WSW 14 17 - - - - - - - - - -
27/07:30am 9.7 WSW 14 17 - - - - - - - - - -
27/07:00am 9.6 W 17 21 - - - - - - - - - -
27/06:30am 9.4 W 16 20 - - - - - - - - - -
27/06:00am 9.6 WSW 15 20 - - - - - - - - - -
27/05:30am 9.6 W 15 19 - - - - - - - - - -
27/05:00am 10.0 W 16 19 - - - - - - - - - -
27/04:30am 10.3 WSW 15 19 - - - - - - - - - -
27/04:00am 10.5 WSW 15 18 - - - - - - - - - -
27/03:30am 10.8 W 16 21 - - - - - - - - - -
27/03:00am 11.2 W 14 18 - - - - - - - - - -
27/02:30am 11.5 WSW 11 13 - - - - - - - - - -
27/02:00am 11.9 W 10 12 - - - - - - - - - -
27/01:30am 12.2 WSW 5 6 - - - - - - - - - -
27/01:00am 12.3 WSW 8 11 - - - - - - - - - -
27/12:30am 12.1 WSW 7 8 - - - - - - - - - -
27/12:00am 12.1 WSW 5 8 - - - - - - - - - -
 
Date/Time
EST
Temp
°C
Wind Pressure Rain since
9am
mm
Weather Cloud Vis
km
Sea
Height
m
Swell
Dir  Spd
kts
Gust
kts
hPa Trend Height
m
Period
s
Dir
26/11:30pm 11.7 W 7 9 - - - - - - - - - -
26/11:00pm 12.1 W 7 8 - - - - - - - - - -
26/10:30pm 12.5 WSW 1 5 - - - - - - - - - -
26/10:00pm 12.3 WSW 5 8 - - - - - - - - - -
26/09:30pm 12.3 SSE 14 18 - - - - - - - - - -
26/09:00pm 12.9 S 9 12 - - - - - - - - - -
26/08:30pm 13.2 S 12 15 - - - - - - - - - -
26/08:00pm 12.9 S 16 20 - - - - - - - - - -
26/07:30pm 12.6 S 17 28 - - - - - - - - - -
26/07:27pm 13.8 SSW 13 28 - - - - - - - - - -
26/07:00pm 14.3 SSW 16 19 - - - - - - - - - -
26/06:30pm 14.3 S 16 20 - - - - - - - - - -
26/06:00pm 14.6 S 17 22 - - - - - - - - - -
26/05:30pm 14.7 SSW 17 21 - - - - - - - - - -
26/05:00pm 14.8 SSW 18 22 - - - - - - - - - -
26/04:30pm 14.1 SSE 13 19 - - - - - - - - - -
26/04:00pm 14.9 S 16 21 - - - - - - - - - -
26/03:30pm 14.6 SSW 17 21 - - - - - - - - - -
26/03:00pm 14.6 SSW 18 23 - - - - - - - - - -
26/02:30pm 14.5 SSW 18 23 - - - - - - - - - -
26/02:00pm 14.6 SSW 14 19 - - - - - - - - - -
26/01:30pm 14.6 SSW 18 22 - - - - - - - - - -
26/01:00pm 14.2 SSW 17 23 - - - - - - - - - -
26/12:30pm 14.1 SSW 17 21 - - - - - - - - - -
26/12:00pm 13.7 SSW 17 23 - - - - - - - - - -
26/11:30am 13.4 SW 15 18 - - - - - - - - - -
26/11:00am 12.9 SW 17 23 - - - - - - - - - -
26/10:30am 12.5 SW 17 21 - - - - - - - - - -
26/10:00am 11.8 W 12 19 - - - - - - - - - -
26/09:30am 10.7 W 13 17 - - - - - - - - - -
26/09:00am 10.3 W 13 15 - - - - - - - - - -
26/08:30am 9.9 W 12 17 - - - - - - - - - -
26/08:00am 9.5 WSW 13 17 - - - - - - - - - -
26/07:30am 9.2 WSW 17 23 - - - - - - - - - -
26/07:00am 8.9 WSW 15 20 - - - - - - - - - -
26/06:30am 8.8 WSW 14 19 - - - - - - - - - -
26/06:00am 9.1 WSW 15 20 - - - - - - - - - -
26/05:30am 9.3 W 15 19 - - - - - - - - - -
26/05:00am 9.3 W 13 17 - - - - - - - - - -
26/04:30am 9.9 WSW 14 19 - - - - - - - - - -
26/04:00am 9.5 W 13 19 - - - - - - - - - -
26/03:30am 9.4 W 13 19 - - - - - - - - - -
26/03:00am 10.7 WSW 14 18 - - - - - - - - - -
26/02:30am 10.5 SW 16 21 - - - - - - - - - -
26/02:00am 10.8 SW 17 22 - - - - - - - - - -
26/01:30am 11.1 WSW 17 22 - - - - - - - - - -
26/01:00am 11.2 WSW 18 23 - - - - - - - - - -
26/12:30am 11.2 SW 18 23 - - - - - - - - - -
26/12:00am 11.5 SW 14 17 - - - - - - - - - -
 
Date/Time
EST
Temp
°C
Wind Pressure Rain since
9am
mm
Weather Cloud Vis
km
Sea
Height
m
Swell
Dir  Spd
kts
Gust
kts
hPa Trend Height
m
Period
s
Dir
25/11:30pm 11.9 WSW 14 22 - - - - - - - - - -
25/11:00pm 12.0 WSW 16 24 - - - - - - - - - -
25/10:30pm 12.4 W 14 18 - - - - - - - - - -
25/10:00pm 12.5 W 15 19 - - - - - - - - - -
25/09:30pm 13.2 WSW 12 15 - - - - - - - - - -
25/09:00pm 13.7 W 12 16 - - - - - - - - - -
25/08:30pm 13.6 NW 11 14 - - - - - - - - - -
25/08:00pm 14.2 SW 4 6 - - - - - - - - - -
25/07:30pm 14.0 SW 4 5 - - - - - - - - - -
25/07:00pm 14.2 SW 4 5 - - - - - - - - - -
25/06:30pm 14.8 SW 4 6 - - - - - - - - - -
25/06:00pm 14.9 SW 7 9 - - - - - - - - - -
25/05:30pm 14.8 SSW 6 7 - - - - - - - - - -

Other Formats:

Comma delimited format used in spreadsheet applications
http://www.bom.gov.au/fwo/IDN60701/IDN60701.95766.axf

JavaScript Object Notation format (JSON) in row-major order
http://www.bom.gov.au/fwo/IDN60701/IDN60701.95766.json